Grassy Butte, North Dakota
Current Conditions -  °F | °C
As of 11:56 AM on Thursday 27 Nov 2014 (Local Time) from KDIK Reporting Station
Overcast Overcast  
Wind Chill:   Ceiling: 1100
Heat Index: 20°   Visibility: 10mi
Dew Point: 16°   Wind: 22mph
Humidity: 85%   Direction: 160°SSE
Pressure: 29.92"   Gusts: NA
Location:  47.39°N, 103.25°W
Report Text: KDIK 271856Z AUTO 16019KT 10SM BKN011 OVC075 M07/M09 A2992 RMK AO2 PK WND 14027/1809 SLP177 T10671089
Loading
Personal Weather Stations






























Interactive Weather Map New forecast layout! Learn more

10-Day Weather Forecast

Advertisements
Track Severe Weather on mobile